createdAt,value
2022-09-09T00:03:19.519Z,65.45
2022-09-09T00:08:32.671Z,65.63
2022-09-09T00:13:43.750Z,65.52
2022-09-09T00:19:19.233Z,65.58
2022-09-09T00:24:45.128Z,65.56
2022-09-09T00:30:15.291Z,65.84
2022-09-09T00:35:24.910Z,65.84
2022-09-09T00:40:33.126Z,66.16
2022-09-09T00:46:03.858Z,66.18
2022-09-09T00:51:24.893Z,66.05
2022-09-09T00:57:03.307Z,65.99
2022-09-09T01:02:23.463Z,65.88
2022-09-09T01:07:27.354Z,65.86
2022-09-09T01:12:44.843Z,65.95
2022-09-09T01:17:59.185Z,65.98
2022-09-09T01:23:36.570Z,65.93
2022-09-09T01:28:55.697Z,65.94
2022-09-09T01:34:12.715Z,66.18
2022-09-09T01:39:16.339Z,65.96
2022-09-09T01:44:21.102Z,66.05
2022-09-09T01:49:24.822Z,65.99
2022-09-09T01:54:31.043Z,65.94
2022-09-09T02:00:11.773Z,65.92
2022-09-09T02:05:38.052Z,65.97
2022-09-09T02:10:59.747Z,65.96
2022-09-09T02:16:25.752Z,65.88
2022-09-09T02:21:33.032Z,66.04
2022-09-09T02:26:41.541Z,66.09
2022-09-09T02:31:48.425Z,65.91
2022-09-09T02:36:56.391Z,65.85
2022-09-09T02:41:59.312Z,65.90
2022-09-09T02:47:29.689Z,66.07
2022-09-09T02:53:00.260Z,66.11
2022-09-09T02:58:08.199Z,66.06
2022-09-09T03:03:12.037Z,65.99
2022-09-09T03:08:15.615Z,65.80
2022-09-09T03:13:20.410Z,65.83
2022-09-09T03:18:24.182Z,66.07
2022-09-09T03:23:29.246Z,66.19
2022-09-09T03:28:34.303Z,66.16
2022-09-09T03:33:39.265Z,66.23
2022-09-09T03:38:42.962Z,66.30
2022-09-09T03:43:46.001Z,66.39
2022-09-09T03:48:49.100Z,66.50
2022-09-09T03:53:52.115Z,66.49
2022-09-09T03:58:55.193Z,66.60
2022-09-09T04:03:59.302Z,66.59
2022-09-09T04:09:04.348Z,66.79
2022-09-09T04:14:07.743Z,66.86
2022-09-09T04:19:14.767Z,66.98
2022-09-09T04:24:18.738Z,67.12
2022-09-09T04:29:21.828Z,67.17
2022-09-09T04:34:24.816Z,67.33
2022-09-09T04:39:31.931Z,67.36
2022-09-09T04:44:35.721Z,67.26
2022-09-09T04:49:39.558Z,67.29
2022-09-09T04:54:42.757Z,67.47
2022-09-09T04:59:46.936Z,67.45
2022-09-09T05:04:50.850Z,67.41
2022-09-09T05:09:53.891Z,67.39
2022-09-09T05:14:56.763Z,67.30
2022-09-09T05:19:59.873Z,67.46
2022-09-09T05:25:03.220Z,67.58
2022-09-09T05:30:07.516Z,67.45
2022-09-09T05:35:11.241Z,67.30
2022-09-09T05:40:15.696Z,67.29
2022-09-09T05:45:18.596Z,67.33
2022-09-09T05:50:21.573Z,67.51
2022-09-09T05:55:26.645Z,67.41
2022-09-09T06:00:32.715Z,67.32
2022-09-09T06:05:36.290Z,67.37
2022-09-09T06:10:39.241Z,67.29
2022-09-09T06:15:51.231Z,67.23
2022-09-09T06:21:02.127Z,66.99
2022-09-09T06:26:09.199Z,67.10
2022-09-09T06:31:14.892Z,67.22
2022-09-09T06:36:19.514Z,66.98
2022-09-09T06:41:23.939Z,66.90
2022-09-09T06:46:29.415Z,66.79
2022-09-09T06:51:35.783Z,66.32
2022-09-09T06:56:44.643Z,66.22
2022-09-09T07:01:58.136Z,66.24
2022-09-09T07:07:02.624Z,65.97
2022-09-09T07:12:06.966Z,65.75
2022-09-09T07:17:10.720Z,65.64
2022-09-09T07:22:15.681Z,65.64
2022-09-09T07:27:19.025Z,65.56
2022-09-09T07:32:24.424Z,65.48
2022-09-09T07:37:27.827Z,65.03
2022-09-09T07:42:31.156Z,64.74
2022-09-09T07:47:34.725Z,64.63
2022-09-09T07:52:38.607Z,64.73
2022-09-09T07:57:42.265Z,64.80
2022-09-09T08:02:45.780Z,64.45
2022-09-09T08:07:49.329Z,64.26
2022-09-09T08:13:14.921Z,64.17
2022-09-09T08:18:16.652Z,63.99
2022-09-09T08:23:20.307Z,63.90
2022-09-09T08:28:23.274Z,63.70
2022-09-09T08:33:26.728Z,63.59
2022-09-09T08:38:29.773Z,63.10
2022-09-09T08:43:34.416Z,62.46
2022-09-09T08:48:49.970Z,62.17
2022-09-09T08:53:59.018Z,61.97
2022-09-09T08:59:04.486Z,61.48
2022-09-09T09:04:40.705Z,61.11
2022-09-09T09:10:00.286Z,60.69
2022-09-09T09:15:18.197Z,60.25
2022-09-09T09:20:45.253Z,60.09
2022-09-09T09:25:51.244Z,59.67
2022-09-09T09:31:02.806Z,59.38
2022-09-09T09:36:09.215Z,59.17
2022-09-09T09:41:12.517Z,58.80
2022-09-09T09:46:24.851Z,58.43
2022-09-09T09:51:31.437Z,58.27
2022-09-09T09:56:34.682Z,58.68
2022-09-09T10:02:18.322Z,58.18
2022-09-09T10:07:23.656Z,57.33
2022-09-09T10:13:02.061Z,56.92
2022-09-09T10:18:23.105Z,56.70
2022-09-09T10:23:28.709Z,56.28
2022-09-09T10:28:50.500Z,56.02
2022-09-09T10:34:18.320Z,56.02
2022-09-09T10:39:39.223Z,55.35
2022-09-09T10:45:09.426Z,54.86
2022-09-09T10:50:28.076Z,54.03
2022-09-09T10:55:46.470Z,53.58
2022-09-09T11:00:58.281Z,52.69
2022-09-09T11:06:07.862Z,52.34
2022-09-09T11:11:33.261Z,51.83
2022-09-09T11:16:49.709Z,51.77
2022-09-09T11:21:54.407Z,51.54
2022-09-09T11:27:04.202Z,51.43
2022-09-09T11:32:48.290Z,51.14
2022-09-09T11:38:06.136Z,50.89
2022-09-09T11:43:32.061Z,50.95
2022-09-09T11:53:29.196Z,49.83
2022-09-09T11:58:39.294Z,49.46
2022-09-09T12:03:47.967Z,49.34
2022-09-09T12:08:58.233Z,48.45
2022-09-09T12:14:02.327Z,47.79
2022-09-09T12:19:06.816Z,47.34
2022-09-09T12:24:20.060Z,46.58
2022-09-09T12:29:34.295Z,46.03
2022-09-09T12:34:42.684Z,46.45
2022-09-09T12:39:52.402Z,46.25
2022-09-09T12:45:18.103Z,46.10
2022-09-09T12:50:27.354Z,45.73
2022-09-09T12:55:34.469Z,45.95
2022-09-09T13:00:37.420Z,45.83
2022-09-09T13:05:40.399Z,45.74
2022-09-09T13:10:58.670Z,45.85
2022-09-09T13:16:09.537Z,46.28
2022-09-09T13:21:12.979Z,46.52
2022-09-09T13:26:24.286Z,46.39
2022-09-09T13:31:33.801Z,46.24
2022-09-09T13:36:36.896Z,46.28
2022-09-09T13:41:49.584Z,46.00
2022-09-09T13:47:10.572Z,45.98
2022-09-09T13:52:19.944Z,46.28
2022-09-09T13:57:26.337Z,46.49
2022-09-09T14:02:29.381Z,46.23
2022-09-09T14:07:33.188Z,46.46
2022-09-09T14:12:37.430Z,46.81
2022-09-09T14:17:40.414Z,47.02
2022-09-09T14:22:43.309Z,47.11
2022-09-09T14:27:47.042Z,47.35
2022-09-09T14:32:50.037Z,47.30
2022-09-09T14:37:52.905Z,47.64
2022-09-09T14:42:57.476Z,47.67
2022-09-09T14:48:00.986Z,47.93
2022-09-09T14:53:03.948Z,48.00
2022-09-09T14:58:07.387Z,48.01
2022-09-09T15:03:11.893Z,48.12
2022-09-09T15:08:17.163Z,48.17
2022-09-09T15:13:20.037Z,48.17
2022-09-09T15:18:22.901Z,47.93
2022-09-09T15:23:26.129Z,47.87
2022-09-09T15:28:29.653Z,47.70
2022-09-09T15:33:33.132Z,47.61
2022-09-09T15:38:35.915Z,47.64
2022-09-09T15:43:40.321Z,47.63
2022-09-09T15:48:46.661Z,47.78
2022-09-09T15:53:58.655Z,48.02
2022-09-09T15:59:04.809Z,48.35
2022-09-09T16:04:07.765Z,48.61
2022-09-09T16:09:11.309Z,48.85
2022-09-09T16:14:16.711Z,48.87
2022-09-09T16:19:20.190Z,48.99
2022-09-09T16:24:24.731Z,49.01
2022-09-09T16:29:28.434Z,49.16
2022-09-09T16:34:31.910Z,49.26
2022-09-09T16:39:34.997Z,49.34
2022-09-09T16:44:38.336Z,49.53
2022-09-09T16:49:41.787Z,49.64
2022-09-09T16:54:46.346Z,49.70
2022-09-09T16:59:50.284Z,49.87
2022-09-09T17:04:53.656Z,49.90
2022-09-09T17:09:56.807Z,50.04
2022-09-09T17:15:01.783Z,50.31
2022-09-09T17:20:07.302Z,50.34
2022-09-09T17:25:10.159Z,50.61
2022-09-09T17:30:13.702Z,50.81
2022-09-09T17:35:17.409Z,51.05
2022-09-09T17:40:21.420Z,51.24
2022-09-09T17:45:24.350Z,51.52
2022-09-09T17:50:27.485Z,51.66
2022-09-09T17:55:30.292Z,51.93
2022-09-09T18:00:33.335Z,52.05
2022-09-09T18:05:36.196Z,52.38
2022-09-09T18:10:39.717Z,52.56
2022-09-09T18:15:49.221Z,52.80
2022-09-09T18:20:59.858Z,53.01
2022-09-09T18:26:11.140Z,53.31
2022-09-09T18:31:16.039Z,53.53
2022-09-09T18:36:44.487Z,53.63
2022-09-09T18:41:50.379Z,53.82
2022-09-09T18:46:54.518Z,54.05
2022-09-09T18:51:58.074Z,54.29
2022-09-09T18:57:01.596Z,54.45
2022-09-09T19:02:04.894Z,54.70
2022-09-09T19:07:08.004Z,54.75
2022-09-09T19:12:11.170Z,54.91
2022-09-09T19:17:14.214Z,54.98
2022-09-09T19:22:17.902Z,55.04
2022-09-09T19:27:20.819Z,55.10
2022-09-09T19:37:47.814Z,55.25
2022-09-09T19:42:53.566Z,55.32
2022-09-09T19:47:56.466Z,55.57
2022-09-09T19:53:00.238Z,55.59
2022-09-09T19:58:04.393Z,55.65
2022-09-09T20:03:18.590Z,56.00
2022-09-09T20:08:22.686Z,56.13
2022-09-09T20:13:25.794Z,56.22
2022-09-09T20:18:33.131Z,56.38
2022-09-09T20:23:37.555Z,56.60
2022-09-09T20:28:42.379Z,56.70
2022-09-09T20:33:48.150Z,56.94
2022-09-09T20:38:57.978Z,56.85
2022-09-09T20:44:07.887Z,57.02
2022-09-09T20:49:12.008Z,57.11
2022-09-09T20:54:18.158Z,57.24
2022-09-09T20:59:23.675Z,57.51
2022-09-09T21:04:26.773Z,57.60
2022-09-09T21:09:29.664Z,57.83
2022-09-09T21:14:32.776Z,58.02
2022-09-09T21:19:35.868Z,58.18
2022-09-09T21:24:38.765Z,58.32
2022-09-09T21:29:42.454Z,58.41
2022-09-09T21:34:46.131Z,58.48
2022-09-09T21:39:48.977Z,58.70
2022-09-09T21:44:51.869Z,58.98
2022-09-09T21:49:54.699Z,58.96
2022-09-09T21:54:58.102Z,59.17
2022-09-09T22:00:01.256Z,59.29
2022-09-09T22:05:05.206Z,59.34
2022-09-09T22:10:10.136Z,59.41
2022-09-09T22:15:13.419Z,59.52
2022-09-09T22:20:16.461Z,59.80
2022-09-09T22:25:19.530Z,59.81
2022-09-09T22:30:22.467Z,59.88
2022-09-09T22:35:25.333Z,60.08
2022-09-09T22:40:28.187Z,60.12
2022-09-09T22:45:32.671Z,60.34
2022-09-09T22:50:41.942Z,60.38
2022-09-09T22:55:59.499Z,60.44
2022-09-09T23:01:15.545Z,60.52
2022-09-09T23:06:24.461Z,60.67
2022-09-09T23:11:31.790Z,60.71
2022-09-09T23:16:45.398Z,60.86
2022-09-09T23:21:48.612Z,60.96
2022-09-09T23:26:53.050Z,61.06
2022-09-09T23:31:55.970Z,61.15
2022-09-09T23:36:58.919Z,61.20
2022-09-09T23:42:06.146Z,61.25
2022-09-09T23:47:09.584Z,61.44
2022-09-09T23:52:12.718Z,61.68
2022-09-09T23:57:15.549Z,61.60
